<?xml version="1.0" encoding="UTF-8"?>
 <gpx
 xmlns="http://www.topografix.com/GPX/1/1"
 version="1.1"
 creator="Wikipedia"
 xmlns:xsi="http://www.w3.org/2001/XMLSchema-instance"
 xsi:schemaLocation="http://www.topografix.com/GPX/1/1 http://www.topografix.com/GPX/1/1/gpx.xsd">
	<time>2026-09-05T18:46:23Z</time>
	<metadata>
 		<name>gps</name>
 	</metadata>
	<trk>
		<name>exercise</name>
		<trkseg>
			<trkpt lat="54.920799054" lon="82.955981899">
				<time>2026-09-05T18:47:31Z</time>
				<ele>129.836</ele>
			</trkpt>
			<trkpt lat="54.920799054" lon="82.955981899">
				<time>2026-09-05T18:47:36Z</time>
				<ele>129.836</ele>
			</trkpt>
			<trkpt lat="54.920799054" lon="82.955981899">
				<time>2026-09-05T18:47:41Z</time>
				<ele>129.836</ele>
			</trkpt>
			<trkpt lat="54.920799054" lon="82.955981899">
				<time>2026-09-05T18:47:46Z</time>
				<ele>129.836</ele>
			</trkpt>
			<trkpt lat="54.920799054" lon="82.955981899">
				<time>2026-09-05T18:47:51Z</time>
				<ele>129.836</ele>
			</trkpt>
			<trkpt lat="54.920799054" lon="82.955981899">
				<time>2026-09-05T18:47:56Z</time>
				<ele>129.836</ele>
			</trkpt>
			<trkpt lat="54.920799054" lon="82.955981899">
				<time>2026-09-05T18:48:01Z</time>
				<ele>129.836</ele>
			</trkpt>
			<trkpt lat="54.920799054" lon="82.955981899">
				<time>2026-09-05T18:48:06Z</time>
				<ele>129.836</ele>
			</trkpt>
			<trkpt lat="54.920799054" lon="82.955981899">
				<time>2026-09-05T18:48:11Z</time>
				<ele>129.836</ele>
			</trkpt>
			<trkpt lat="54.920799054" lon="82.955981899">
				<time>2026-09-05T18:48:16Z</time>
				<ele>129.836</ele>
			</trkpt>
			<trkpt lat="54.920799054" lon="82.955981899">
				<time>2026-09-05T18:48:21Z</time>
				<ele>129.836</ele>
			</trkpt>
			<trkpt lat="54.920799054" lon="82.955981899">
				<time>2026-09-05T18:48:26Z</time>
				<ele>129.836</ele>
			</trkpt>
			<trkpt lat="54.920799054" lon="82.955981899">
				<time>2026-09-05T18:48:31Z</time>
				<ele>129.836</ele>
			</trkpt>
			<trkpt lat="54.919416754" lon="82.954431242">
				<time>2026-09-05T18:48:38Z</time>
				<ele>128.199</ele>
			</trkpt>
			<trkpt lat="54.919416754" lon="82.954431242">
				<time>2026-09-05T18:48:43Z</time>
				<ele>128.199</ele>
			</trkpt>
			<trkpt lat="54.919416754" lon="82.954431242">
				<time>2026-09-05T18:48:48Z</time>
				<ele>128.199</ele>
			</trkpt>
			<trkpt lat="54.919416754" lon="82.954431242">
				<time>2026-09-05T18:48:53Z</time>
				<ele>128.199</ele>
			</trkpt>
			<trkpt lat="54.919416754" lon="82.954431242">
				<time>2026-09-05T18:48:58Z</time>
				<ele>128.199</ele>
			</trkpt>
			<trkpt lat="54.919416754" lon="82.954431242">
				<time>2026-09-05T18:49:03Z</time>
				<ele>128.199</ele>
			</trkpt>
			<trkpt lat="54.919416754" lon="82.954431242">
				<time>2026-09-05T18:49:08Z</time>
				<ele>128.199</ele>
			</trkpt>
			<trkpt lat="54.919416754" lon="82.954431242">
				<time>2026-09-05T18:49:13Z</time>
				<ele>128.199</ele>
			</trkpt>
			<trkpt lat="54.919416754" lon="82.954431242">
				<time>2026-09-05T18:49:18Z</time>
				<ele>128.199</ele>
			</trkpt>
			<trkpt lat="54.919416754" lon="82.954431242">
				<time>2026-09-05T18:49:23Z</time>
				<ele>128.199</ele>
			</trkpt>
			<trkpt lat="54.919416754" lon="82.954431242">
				<time>2026-09-05T18:49:28Z</time>
				<ele>128.199</ele>
			</trkpt>
			<trkpt lat="54.919416754" lon="82.954431242">
				<time>2026-09-05T18:49:33Z</time>
				<ele>128.199</ele>
			</trkpt>
			<trkpt lat="54.919416754" lon="82.954431242">
				<time>2026-09-05T18:49:38Z</time>
				<ele>128.199</ele>
			</trkpt>
			<trkpt lat="54.920680592" lon="82.956548386">
				<time>2026-09-05T18:49:47Z</time>
				<ele>127.513</ele>
			</trkpt>
			<trkpt lat="54.920680592" lon="82.956548386">
				<time>2026-09-05T18:49:52Z</time>
				<ele>127.513</ele>
			</trkpt>
			<trkpt lat="54.920680592" lon="82.956548386">
				<time>2026-09-05T18:49:57Z</time>
				<ele>127.513</ele>
			</trkpt>
			<trkpt lat="54.920680592" lon="82.956548386">
				<time>2026-09-05T18:50:02Z</time>
				<ele>127.513</ele>
			</trkpt>
			<trkpt lat="54.920680592" lon="82.956548386">
				<time>2026-09-05T18:50:07Z</time>
				<ele>127.513</ele>
			</trkpt>
			<trkpt lat="54.920680592" lon="82.956548386">
				<time>2026-09-05T18:50:12Z</time>
				<ele>127.513</ele>
			</trkpt>
			<trkpt lat="54.920680592" lon="82.956548386">
				<time>2026-09-05T18:50:17Z</time>
				<ele>127.513</ele>
			</trkpt>
			<trkpt lat="54.920680592" lon="82.956548386">
				<time>2026-09-05T18:50:22Z</time>
				<ele>127.513</ele>
			</trkpt>
			<trkpt lat="54.920680592" lon="82.956548386">
				<time>2026-09-05T18:50:27Z</time>
				<ele>127.513</ele>
			</trkpt>
			<trkpt lat="54.920680592" lon="82.956548386">
				<time>2026-09-05T18:50:32Z</time>
				<ele>127.513</ele>
			</trkpt>
			<trkpt lat="54.920680592" lon="82.956548386">
				<time>2026-09-05T18:50:37Z</time>
				<ele>127.513</ele>
			</trkpt>
			<trkpt lat="54.920680592" lon="82.956548386">
				<time>2026-09-05T18:50:42Z</time>
				<ele>127.513</ele>
			</trkpt>
			<trkpt lat="54.920680592" lon="82.956548386">
				<time>2026-09-05T18:50:47Z</time>
				<ele>127.513</ele>
			</trkpt>
			<trkpt lat="54.929487434" lon="82.942915987">
				<time>2026-09-05T18:50:54Z</time>
				<ele>128.221</ele>
			</trkpt>
			<trkpt lat="54.929487434" lon="82.942915987">
				<time>2026-09-05T18:50:59Z</time>
				<ele>128.221</ele>
			</trkpt>
			<trkpt lat="54.929487434" lon="82.942915987">
				<time>2026-09-05T18:51:04Z</time>
				<ele>128.221</ele>
			</trkpt>
			<trkpt lat="54.929487434" lon="82.942915987">
				<time>2026-09-05T18:51:09Z</time>
				<ele>128.221</ele>
			</trkpt>
			<trkpt lat="54.929487434" lon="82.942915987">
				<time>2026-09-05T18:51:14Z</time>
				<ele>128.221</ele>
			</trkpt>
			<trkpt lat="54.929487434" lon="82.942915987">
				<time>2026-09-05T18:51:19Z</time>
				<ele>128.221</ele>
			</trkpt>
			<trkpt lat="54.929487434" lon="82.942915987">
				<time>2026-09-05T18:51:24Z</time>
				<ele>128.221</ele>
			</trkpt>
			<trkpt lat="54.929487434" lon="82.942915987">
				<time>2026-09-05T18:51:29Z</time>
				<ele>128.221</ele>
			</trkpt>
			<trkpt lat="54.929487434" lon="82.942915987">
				<time>2026-09-05T18:51:34Z</time>
				<ele>128.221</ele>
			</trkpt>
			<trkpt lat="54.929487434" lon="82.942915987">
				<time>2026-09-05T18:51:39Z</time>
				<ele>128.221</ele>
			</trkpt>
			<trkpt lat="54.929487434" lon="82.942915987">
				<time>2026-09-05T18:51:44Z</time>
				<ele>128.221</ele>
			</trkpt>
			<trkpt lat="54.929487434" lon="82.942915987">
				<time>2026-09-05T18:51:49Z</time>
				<ele>128.221</ele>
			</trkpt>
			<trkpt lat="54.929487434" lon="82.942915987">
				<time>2026-09-05T18:51:54Z</time>
				<ele>128.221</ele>
			</trkpt>
			<trkpt lat="54.937412614" lon="82.935359012">
				<time>2026-09-05T18:52:01Z</time>
				<ele>131.749</ele>
			</trkpt>
			<trkpt lat="54.937412614" lon="82.935359012">
				<time>2026-09-05T18:52:06Z</time>
				<ele>131.749</ele>
			</trkpt>
			<trkpt lat="54.937412614" lon="82.935359012">
				<time>2026-09-05T18:52:11Z</time>
				<ele>131.749</ele>
			</trkpt>
			<trkpt lat="54.937412614" lon="82.935359012">
				<time>2026-09-05T18:52:16Z</time>
				<ele>131.749</ele>
			</trkpt>
			<trkpt lat="54.937412614" lon="82.935359012">
				<time>2026-09-05T18:52:21Z</time>
				<ele>131.749</ele>
			</trkpt>
			<trkpt lat="54.937412614" lon="82.935359012">
				<time>2026-09-05T18:52:26Z</time>
				<ele>131.749</ele>
			</trkpt>
			<trkpt lat="54.937412614" lon="82.935359012">
				<time>2026-09-05T18:52:31Z</time>
				<ele>131.749</ele>
			</trkpt>
			<trkpt lat="54.937412614" lon="82.935359012">
				<time>2026-09-05T18:52:36Z</time>
				<ele>131.749</ele>
			</trkpt>
			<trkpt lat="54.937412614" lon="82.935359012">
				<time>2026-09-05T18:52:41Z</time>
				<ele>131.749</ele>
			</trkpt>
			<trkpt lat="54.937412614" lon="82.935359012">
				<time>2026-09-05T18:52:46Z</time>
				<ele>131.749</ele>
			</trkpt>
			<trkpt lat="54.937412614" lon="82.935359012">
				<time>2026-09-05T18:52:51Z</time>
				<ele>131.749</ele>
			</trkpt>
			<trkpt lat="54.937412614" lon="82.935359012">
				<time>2026-09-05T18:52:56Z</time>
				<ele>131.749</ele>
			</trkpt>
			<trkpt lat="54.937412614" lon="82.935359012">
				<time>2026-09-05T18:53:01Z</time>
				<ele>131.749</ele>
			</trkpt>
			<trkpt lat="54.942481223" lon="82.935967158">
				<time>2026-09-05T18:53:10Z</time>
				<ele>130.803</ele>
			</trkpt>
			<trkpt lat="54.942481223" lon="82.935967158">
				<time>2026-09-05T18:53:15Z</time>
				<ele>130.803</ele>
			</trkpt>
			<trkpt lat="54.942481223" lon="82.935967158">
				<time>2026-09-05T18:53:20Z</time>
				<ele>130.803</ele>
			</trkpt>
			<trkpt lat="54.942481223" lon="82.935967158">
				<time>2026-09-05T18:53:25Z</time>
				<ele>130.803</ele>
			</trkpt>
			<trkpt lat="54.942481223" lon="82.935967158">
				<time>2026-09-05T18:53:30Z</time>
				<ele>130.803</ele>
			</trkpt>
			<trkpt lat="54.942481223" lon="82.935967158">
				<time>2026-09-05T18:53:35Z</time>
				<ele>130.803</ele>
			</trkpt>
			<trkpt lat="54.942481223" lon="82.935967158">
				<time>2026-09-05T18:53:40Z</time>
				<ele>130.803</ele>
			</trkpt>
			<trkpt lat="54.942481223" lon="82.935967158">
				<time>2026-09-05T18:53:45Z</time>
				<ele>130.803</ele>
			</trkpt>
			<trkpt lat="54.942481223" lon="82.935967158">
				<time>2026-09-05T18:53:50Z</time>
				<ele>130.803</ele>
			</trkpt>
			<trkpt lat="54.942481223" lon="82.935967158">
				<time>2026-09-05T18:53:55Z</time>
				<ele>130.803</ele>
			</trkpt>
			<trkpt lat="54.942481223" lon="82.935967158">
				<time>2026-09-05T18:54:00Z</time>
				<ele>130.803</ele>
			</trkpt>
			<trkpt lat="54.942481223" lon="82.935967158">
				<time>2026-09-05T18:54:05Z</time>
				<ele>130.803</ele>
			</trkpt>
			<trkpt lat="54.942481223" lon="82.935967158">
				<time>2026-09-05T18:54:10Z</time>
				<ele>130.803</ele>
			</trkpt>
			<trkpt lat="54.950341928" lon="82.936813402">
				<time>2026-09-05T18:54:17Z</time>
				<ele>137.415</ele>
			</trkpt>
			<trkpt lat="54.950341928" lon="82.936813402">
				<time>2026-09-05T18:54:22Z</time>
				<ele>137.415</ele>
			</trkpt>
			<trkpt lat="54.950341928" lon="82.936813402">
				<time>2026-09-05T18:54:27Z</time>
				<ele>137.415</ele>
			</trkpt>
			<trkpt lat="54.950341928" lon="82.936813402">
				<time>2026-09-05T18:54:32Z</time>
				<ele>137.415</ele>
			</trkpt>
			<trkpt lat="54.950341928" lon="82.936813402">
				<time>2026-09-05T18:54:37Z</time>
				<ele>137.415</ele>
			</trkpt>
			<trkpt lat="54.950341928" lon="82.936813402">
				<time>2026-09-05T18:54:42Z</time>
				<ele>137.415</ele>
			</trkpt>
			<trkpt lat="54.950341928" lon="82.936813402">
				<time>2026-09-05T18:54:47Z</time>
				<ele>137.415</ele>
			</trkpt>
			<trkpt lat="54.950341928" lon="82.936813402">
				<time>2026-09-05T18:54:52Z</time>
				<ele>137.415</ele>
			</trkpt>
			<trkpt lat="54.950341928" lon="82.936813402">
				<time>2026-09-05T18:54:57Z</time>
				<ele>137.415</ele>
			</trkpt>
			<trkpt lat="54.950341928" lon="82.936813402">
				<time>2026-09-05T18:55:02Z</time>
				<ele>137.415</ele>
			</trkpt>
			<trkpt lat="54.950341928" lon="82.936813402">
				<time>2026-09-05T18:55:07Z</time>
				<ele>137.415</ele>
			</trkpt>
			<trkpt lat="54.950341928" lon="82.936813402">
				<time>2026-09-05T18:55:12Z</time>
				<ele>137.415</ele>
			</trkpt>
			<trkpt lat="54.950341928" lon="82.936813402">
				<time>2026-09-05T18:55:17Z</time>
				<ele>137.415</ele>
			</trkpt>
			<trkpt lat="54.957580072" lon="82.938105756">
				<time>2026-09-05T18:55:24Z</time>
				<ele>136.004</ele>
			</trkpt>
			<trkpt lat="54.957580072" lon="82.938105756">
				<time>2026-09-05T18:55:29Z</time>
				<ele>136.004</ele>
			</trkpt>
			<trkpt lat="54.957580072" lon="82.938105756">
				<time>2026-09-05T18:55:34Z</time>
				<ele>136.004</ele>
			</trkpt>
			<trkpt lat="54.957580072" lon="82.938105756">
				<time>2026-09-05T18:55:39Z</time>
				<ele>136.004</ele>
			</trkpt>
			<trkpt lat="54.957580072" lon="82.938105756">
				<time>2026-09-05T18:55:44Z</time>
				<ele>136.004</ele>
			</trkpt>
			<trkpt lat="54.957580072" lon="82.938105756">
				<time>2026-09-05T18:55:49Z</time>
				<ele>136.004</ele>
			</trkpt>
			<trkpt lat="54.957580072" lon="82.938105756">
				<time>2026-09-05T18:55:54Z</time>
				<ele>136.004</ele>
			</trkpt>
			<trkpt lat="54.957580072" lon="82.938105756">
				<time>2026-09-05T18:55:59Z</time>
				<ele>136.004</ele>
			</trkpt>
			<trkpt lat="54.957580072" lon="82.938105756">
				<time>2026-09-05T18:56:04Z</time>
				<ele>136.004</ele>
			</trkpt>
			<trkpt lat="54.957580072" lon="82.938105756">
				<time>2026-09-05T18:56:09Z</time>
				<ele>136.004</ele>
			</trkpt>
			<trkpt lat="54.957580072" lon="82.938105756">
				<time>2026-09-05T18:56:14Z</time>
				<ele>136.004</ele>
			</trkpt>
			<trkpt lat="54.957580072" lon="82.938105756">
				<time>2026-09-05T18:56:19Z</time>
				<ele>136.004</ele>
			</trkpt>
			<trkpt lat="54.957580072" lon="82.938105756">
				<time>2026-09-05T18:56:24Z</time>
				<ele>136.004</ele>
			</trkpt>
			<trkpt lat="54.959368585" lon="82.938409593">
				<time>2026-09-05T18:56:31Z</time>
				<ele>135.256</ele>
			</trkpt>
			<trkpt lat="54.959368585" lon="82.938409593">
				<time>2026-09-05T18:56:36Z</time>
				<ele>135.256</ele>
			</trkpt>
			<trkpt lat="54.959368585" lon="82.938409593">
				<time>2026-09-05T18:56:41Z</time>
				<ele>135.256</ele>
			</trkpt>
			<trkpt lat="54.959368585" lon="82.938409593">
				<time>2026-09-05T18:56:46Z</time>
				<ele>135.256</ele>
			</trkpt>
			<trkpt lat="54.959368585" lon="82.938409593">
				<time>2026-09-05T18:56:51Z</time>
				<ele>135.256</ele>
			</trkpt>
			<trkpt lat="54.959368585" lon="82.938409593">
				<time>2026-09-05T18:56:56Z</time>
				<ele>135.256</ele>
			</trkpt>
			<trkpt lat="54.959368585" lon="82.938409593">
				<time>2026-09-05T18:57:01Z</time>
				<ele>135.256</ele>
			</trkpt>
			<trkpt lat="54.959368585" lon="82.938409593">
				<time>2026-09-05T18:57:06Z</time>
				<ele>135.256</ele>
			</trkpt>
			<trkpt lat="54.959368585" lon="82.938409593">
				<time>2026-09-05T18:57:11Z</time>
				<ele>135.256</ele>
			</trkpt>
			<trkpt lat="54.959368585" lon="82.938409593">
				<time>2026-09-05T18:57:16Z</time>
				<ele>135.256</ele>
			</trkpt>
			<trkpt lat="54.959368585" lon="82.938409593">
				<time>2026-09-05T18:57:21Z</time>
				<ele>135.256</ele>
			</trkpt>
			<trkpt lat="54.959368585" lon="82.938409593">
				<time>2026-09-05T18:57:26Z</time>
				<ele>135.256</ele>
			</trkpt>
			<trkpt lat="54.959368585" lon="82.938409593">
				<time>2026-09-05T18:57:31Z</time>
				<ele>135.256</ele>
			</trkpt>
			<trkpt lat="54.96361599" lon="82.942193751">
				<time>2026-09-05T18:57:40Z</time>
				<ele>130.195</ele>
			</trkpt>
			<trkpt lat="54.96361599" lon="82.942193751">
				<time>2026-09-05T18:57:45Z</time>
				<ele>130.195</ele>
			</trkpt>
			<trkpt lat="54.96361599" lon="82.942193751">
				<time>2026-09-05T18:57:50Z</time>
				<ele>130.195</ele>
			</trkpt>
			<trkpt lat="54.96361599" lon="82.942193751">
				<time>2026-09-05T18:57:55Z</time>
				<ele>130.195</ele>
			</trkpt>
			<trkpt lat="54.96361599" lon="82.942193751">
				<time>2026-09-05T18:58:00Z</time>
				<ele>130.195</ele>
			</trkpt>
			<trkpt lat="54.96361599" lon="82.942193751">
				<time>2026-09-05T18:58:05Z</time>
				<ele>130.195</ele>
			</trkpt>
			<trkpt lat="54.96361599" lon="82.942193751">
				<time>2026-09-05T18:58:10Z</time>
				<ele>130.195</ele>
			</trkpt>
			<trkpt lat="54.96361599" lon="82.942193751">
				<time>2026-09-05T18:58:15Z</time>
				<ele>130.195</ele>
			</trkpt>
			<trkpt lat="54.96361599" lon="82.942193751">
				<time>2026-09-05T18:58:20Z</time>
				<ele>130.195</ele>
			</trkpt>
			<trkpt lat="54.96361599" lon="82.942193751">
				<time>2026-09-05T18:58:25Z</time>
				<ele>130.195</ele>
			</trkpt>
			<trkpt lat="54.96361599" lon="82.942193751">
				<time>2026-09-05T18:58:30Z</time>
				<ele>130.195</ele>
			</trkpt>
			<trkpt lat="54.96361599" lon="82.942193751">
				<time>2026-09-05T18:58:35Z</time>
				<ele>130.195</ele>
			</trkpt>
			<trkpt lat="54.96361599" lon="82.942193751">
				<time>2026-09-05T18:58:40Z</time>
				<ele>130.195</ele>
			</trkpt>
			<trkpt lat="54.965725561" lon="82.937596286">
				<time>2026-09-05T18:58:51Z</time>
				<ele>133.366</ele>
			</trkpt>
		</trkseg>
	</trk>
</gpx>
